Time;durP1;ratioP1;P1;durP2;ratioP2;P2;SDS_P1;SDS_P2;PMS_P1;PMS_P2;Temp;Humidity;BMP_temperature;BMP_pressure;BME280_temperature;BME280_humidity;BME280_pressure;Samples;Min_cycle;Max_cycle;Signal;HPM_P1;HPM_P2
2022/01/02 00:01:38;;;;;;;13.45;8.23;;;;;;;;;;5044371;28;20254;-83
2022/01/02 00:04:07;;;;;;;10.00;8.52;;;;;;;;;;5038448;28;20204;-83
2022/01/02 00:06:40;;;;;;;8.85;7.70;;;5.50;99.90;;;;;;5049167;28;20227;-83
2022/01/02 00:09:07;;;;;;;10.57;7.57;;;;;;;;;;5022249;28;20235;-83
2022/01/02 00:11:36;;;;;;;8.10;7.30;;;;;;;;;;5034886;28;20300;-83
2022/01/02 00:14:07;;;;;;;9.68;7.50;;;5.30;99.90;;;;;;5039352;28;20205;-83
2022/01/02 00:16:36;;;;;;;10.43;7.90;;;5.40;99.90;;;;;;5035677;28;20302;-83
2022/01/02 00:19:08;;;;;;;9.63;8.10;;;;;;;;;;5030971;28;20681;-83
2022/01/02 00:21:44;;;;;;;8.20;7.25;;;;;;;;;;5042836;28;20200;-83
2022/01/02 00:24:14;;;;;;;8.75;7.05;;;;;;;;;;5038669;28;20276;-82
2022/01/02 00:26:44;;;;;;;11.40;7.63;;;;;;;;;;5039850;28;20260;-83
2022/01/02 00:29:11;;;;;;;8.40;7.50;;;5.40;99.90;;;;;;5037718;28;20216;-83
2022/01/02 00:31:40;;;;;;;7.63;6.93;;;5.30;99.90;;;;;;5042821;28;20288;-83
2022/01/02 00:34:07;;;;;;;7.50;6.70;;;5.40;99.90;;;;;;5038782;28;20240;-82
2022/01/02 00:36:37;;;;;;;9.65;7.28;;;5.20;99.90;;;;;;5038558;28;20236;-83
2022/01/02 00:39:06;;;;;;;9.65;6.45;;;;;;;;;;5038347;28;20207;-83
2022/01/02 00:41:38;;;;;;;7.15;6.45;;;5.20;99.90;;;;;;5041767;28;20207;-83
2022/01/02 00:44:14;;;;;;;9.30;6.60;;;5.20;99.90;;;;;;5038417;28;20277;-83
2022/01/02 00:46:50;;;;;;;7.10;6.40;;;5.20;99.90;;;;;;5040121;28;20195;-83
2022/01/02 00:49:24;;;;;;;6.72;5.72;;;5.40;99.90;;;;;;5036823;28;20321;-83
2022/01/02 00:52:02;;;;;;;7.93;6.45;;;5.40;99.90;;;;;;5039098;28;20290;-82
2022/01/02 00:54:30;;;;;;;8.85;6.50;;;;;;;;;;5040571;28;20299;-82
2022/01/02 00:56:59;;;;;;;8.57;6.35;;;;;;;;;;5042618;28;20834;-83
2022/01/02 00:59:28;;;;;;;6.03;5.40;;;;;;;;;;5034576;28;20231;-82
2022/01/02 01:02:02;;;;;;;10.43;6.28;;;5.30;99.90;;;;;;5044011;28;20287;-83
2022/01/02 01:04:31;;;;;;;6.95;5.85;;;5.10;99.90;;;;;;5032173;28;20265;-83
2022/01/02 01:07:05;;;;;;;6.28;5.68;;;5.10;99.90;;;;;;5040996;28;20311;-83
2022/01/02 01:09:34;;;;;;;5.97;5.38;;;;;;;;;;5038155;28;20289;-83
2022/01/02 01:12:04;;;;;;;7.75;5.70;;;5.10;99.90;;;;;;5039058;28;20200;-83
2022/01/02 01:14:32;;;;;;;6.10;5.50;;;;;;;;;;5044070;28;20232;-83
2022/01/02 01:17:00;;;;;;;6.55;5.85;;;;;;;;;;5040197;28;20212;-82
2022/01/02 01:19:28;;;;;;;6.32;5.65;;;;;;;;;;5043814;28;20200;-83
2022/01/02 01:21:56;;;;;;;13.85;5.80;;;;;;;;;;5041975;28;20200;-83
2022/01/02 01:24:25;;;;;;;5.97;4.90;;;;;;;;;;5040761;28;20202;-83
2022/01/02 01:26:56;;;;;;;5.47;4.95;;;;;;;;;;5042038;28;20204;-83
2022/01/02 01:29:23;;;;;;;6.55;5.40;;;;;;;;;;5041134;28;20223;-83
2022/01/02 01:31:51;;;;;;;5.88;5.00;;;;;;;;;;5041938;28;20200;-83
2022/01/02 01:34:19;;;;;;;6.13;5.20;;;;;;;;;;5041473;28;20210;-83
2022/01/02 01:36:46;;;;;;;6.32;5.22;;;;;;;;;;5045520;28;20262;-82
2022/01/02 01:39:13;;;;;;;5.47;4.82;;;;;;;;;;5041493;28;20220;-82
2022/01/02 01:41:42;;;;;;;6.22;5.38;;;;;;;;;;5044865;28;20892;-82
2022/01/02 01:44:27;;;;;;;6.50;4.95;;;5.30;99.90;;;;;;5041309;28;20211;-83
2022/01/02 01:46:56;;;;;;;6.53;5.70;;;;;;;;;;5042284;28;20206;-83
2022/01/02 01:49:27;;;;;;;10.50;6.25;;;5.30;99.90;;;;;;5044173;28;20338;-83
2022/01/02 01:51:54;;;;;;;7.45;5.95;;;;;;;;;;5045171;28;21000;-83
2022/01/02 01:54:22;;;;;;;10.43;7.05;;;;;;;;;;5040725;28;20290;-83
2022/01/02 01:56:51;;;;;;;8.02;7.03;;;;;;;;;;5048130;28;20310;-83
2022/01/02 01:59:20;;;;;;;11.63;7.68;;;5.20;99.90;;;;;;5035316;28;20220;-83
2022/01/02 02:01:47;;;;;;;6.85;6.15;;;;;;;;;;5044550;28;20208;-83
2022/01/02 02:04:15;;;;;;;5.97;5.28;;;;;;;;;;5041344;28;20285;-83
2022/01/02 02:06:43;;;;;;;7.90;6.90;;;;;;;;;;5042555;28;20837;-83
2022/01/02 02:09:11;;;;;;;8.18;6.13;;;;;;;;;;5043040;28;20523;-83
2022/01/02 02:11:40;;;;;;;9.25;6.63;;;;;;;;;;5045337;28;20200;-83
2022/01/02 02:14:09;;;;;;;8.25;6.15;;;;;;;;;;5043321;28;20311;-83
2022/01/02 02:16:36;;;;;;;7.05;6.35;;;;;;;;;;5041127;28;20243;-82
2022/01/02 02:19:04;;;;;;;8.55;6.25;;;;;;;;;;5038783;28;20209;-82
2022/01/02 02:21:34;;;;;;;7.63;6.90;;;4.80;99.90;;;;;;5041066;28;20193;-83
2022/01/02 02:24:01;;;;;;;7.95;6.25;;;;;;;;;;5044127;28;20214;-83
2022/01/02 02:26:29;;;;;;;9.18;7.22;;;;;;;;;;5036266;28;20216;-84
2022/01/02 02:28:56;;;;;;;9.07;6.05;;;;;;;;;;5043031;28;20240;-83
2022/01/02 02:31:23;;;;;;;6.95;6.30;;;;;;;;;;5041348;28;20266;-83
2022/01/02 02:33:51;;;;;;;7.13;5.45;;;;;;;;;;5041443;28;20308;-83
2022/01/02 02:36:18;;;;;;;8.82;6.75;;;;;;;;;;5040953;28;20224;-83
2022/01/02 02:38:46;;;;;;;9.05;6.75;;;;;;;;;;5043716;28;20603;-83
2022/01/02 02:41:14;;;;;;;11.15;7.28;;;;;;;;;;5037193;28;20706;-83
2022/01/02 02:43:48;;;;;;;6.60;6.00;;;;;;;;;;5040324;28;20196;-83
2022/01/02 02:49:02;;;;;;;8.27;6.80;;;5.00;99.90;;;;;;5040884;28;20239;-83
2022/01/02 02:51:35;;;;;;;8.02;6.55;;;;;;;;;;5041128;28;20258;-83
2022/01/02 02:54:05;;;;;;;10.90;6.82;;;5.10;99.90;;;;;;5042916;28;20216;-83
2022/01/02 02:56:42;;;;;;;9.90;6.85;;;;;;;;;;5038169;28;20200;-83
2022/01/02 02:59:10;;;;;;;7.22;6.53;;;;;;;;;;5042608;28;20725;-83
2022/01/02 03:01:38;;;;;;;10.90;6.13;;;;;;;;;;5047306;28;20208;-83
2022/01/02 03:04:05;;;;;;;8.95;6.47;;;;;;;;;;5041363;28;20203;-83
2022/01/02 03:06:32;;;;;;;7.38;6.70;;;;;;;;;;5041019;28;20199;-83
2022/01/02 03:09:06;;;;;;;8.88;6.53;;;;;;;;;;5042100;28;20228;-83
2022/01/02 03:11:35;;;;;;;9.95;7.65;;;;;;;;;;5039877;28;20234;-83
2022/01/02 03:14:03;;;;;;;9.10;7.18;;;;;;;;;;5040445;28;20244;-83
2022/01/02 03:16:30;;;;;;;7.93;6.57;;;;;;;;;;5035503;28;20672;-83
2022/01/02 03:18:57;;;;;;;7.85;6.50;;;;;;;;;;5043044;28;20204;-83
2022/01/02 03:21:24;;;;;;;9.30;7.85;;;;;;;;;;5041159;28;20953;-83
2022/01/02 03:23:52;;;;;;;9.50;7.78;;;;;;;;;;5041088;28;20223;-83
2022/01/02 03:26:20;;;;;;;11.18;7.90;;;;;;;;;;5040441;28;20210;-83
2022/01/02 03:28:48;;;;;;;10.20;9.20;;;;;;;;;;5040472;28;20890;-83
2022/01/02 03:31:16;;;;;;;13.73;8.23;;;;;;;;;;5039726;28;20203;-83
2022/01/02 03:33:43;;;;;;;7.55;6.75;;;;;;;;;;5040287;28;20212;-83
2022/01/02 03:36:11;;;;;;;10.27;9.18;;;;;;;;;;5036098;28;20227;-83
2022/01/02 03:38:38;;;;;;;9.88;8.18;;;;;;;;;;5038774;28;20208;-83
2022/01/02 03:41:05;;;;;;;9.43;6.80;;;;;;;;;;5042700;28;20200;-83
2022/01/02 03:43:33;;;;;;;9.75;8.00;;;;;;;;;;5038173;28;20908;-83
2022/01/02 03:46:03;;;;;;;8.88;7.63;;;;;;;;;;5041383;28;20199;-83
2022/01/02 03:48:31;;;;;;;9.27;7.80;;;;;;;;;;5039741;28;20263;-83
2022/01/02 03:50:58;;;;;;;8.50;7.43;;;;;;;;;;5040600;28;20199;-83
2022/01/02 03:53:25;;;;;;;8.38;7.30;;;;;;;;;;5041353;28;20192;-83
2022/01/02 03:55:53;;;;;;;7.13;6.53;;;;;;;;;;5040725;28;20212;-83
2022/01/02 03:58:20;;;;;;;9.57;7.65;;;;;;;;;;5040038;28;20203;-83
2022/01/02 04:00:47;;;;;;;9.30;7.78;;;;;;;;;;5041743;28;20196;-83
2022/01/02 04:03:16;;;;;;;8.98;7.05;;;;;;;;;;5038557;28;20286;-84
2022/01/02 04:05:44;;;;;;;11.05;6.60;;;;;;;;;;5039772;28;20209;-83
2022/01/02 04:08:11;;;;;;;8.02;6.78;;;;;;;;;;5044307;28;20290;-83
2022/01/02 04:10:39;;;;;;;10.30;6.90;;;;;;;;;;5039658;28;20212;-83
2022/01/02 04:13:07;;;;;;;10.25;6.85;;;;;;;;;;5037465;28;20600;-84
2022/01/02 04:15:34;;;;;;;6.90;6.32;;;;;;;;;;5042430;28;20203;-83
2022/01/02 04:18:02;;;;;;;8.35;6.13;;;;;;;;;;5036379;28;20559;-83
2022/01/02 04:20:31;;;;;;;8.02;6.55;;;;;;;;;;5032411;28;20207;-83
2022/01/02 04:22:58;;;;;;;8.98;7.18;;;;;;;;;;5027726;28;20262;-83
2022/01/02 04:25:25;;;;;;;8.55;5.97;;;;;;;;;;5044278;28;20204;-83
2022/01/02 04:27:52;;;;;;;9.73;6.78;;;;;;;;;;5039010;28;20196;-83
2022/01/02 04:30:20;;;;;;;7.72;6.60;;;;;;;;;;5037357;28;20316;-83
2022/01/02 04:32:48;;;;;;;8.77;6.32;;;;;;;;;;5039284;28;20212;-82
2022/01/02 04:35:16;;;;;;;7.32;6.45;;;4.20;99.90;;;;;;5039979;28;20727;-83
2022/01/02 04:37:46;;;;;;;7.90;5.68;;;;;;;;;;5038845;28;20231;-83
2022/01/02 04:40:14;;;;;;;7.80;7.00;;;;;;;;;;5040362;28;20212;-83
2022/01/02 04:42:41;;;;;;;7.78;6.63;;;;;;;;;;5038988;28;20649;-83
2022/01/02 04:45:08;;;;;;;7.95;6.05;;;;;;;;;;5038224;28;20215;-83
2022/01/02 04:47:36;;;;;;;7.10;6.00;;;;;;;;;;5042439;28;20232;-83
2022/01/02 04:50:04;;;;;;;6.40;5.38;;;;;;;;;;5038550;28;20290;-83
2022/01/02 04:52:32;;;;;;;10.88;6.90;;;;;;;;;;5043557;28;20196;-83
2022/01/02 04:55:00;;;;;;;6.68;5.97;;;;;;;;;;5043884;28;20270;-83
2022/01/02 04:57:28;;;;;;;8.27;6.15;;;;;;;;;;5046856;28;20208;-83
2022/01/02 04:59:55;;;;;;;7.38;6.15;;;;;;;;;;5043012;28;20200;-83
2022/01/02 05:02:22;;;;;;;6.95;5.53;;;;;;;;;;5043921;28;20209;-83
2022/01/02 05:04:49;;;;;;;6.65;5.00;;;;;;;;;;5042226;28;20196;-83
2022/01/02 05:07:18;;;;;;;5.70;5.20;;;;;;;;;;5045828;28;20196;-83
2022/01/02 05:09:45;;;;;;;6.68;5.65;;;;;;;;;;5040410;28;20252;-83
2022/01/02 05:12:14;;;;;;;4.55;4.20;;;;;;;;;;5044955;28;20208;-83
2022/01/02 05:14:41;;;;;;;8.77;5.50;;;;;;;;;;5042160;28;20196;-83
2022/01/02 05:17:08;;;;;;;7.30;5.25;;;;;;;;;;5044787;28;20569;-83
2022/01/02 05:19:36;;;;;;;6.50;5.75;;;;;;;;;;5041972;28;20203;-83
2022/01/02 05:22:03;;;;;;;6.50;5.90;;;;;;;;;;5042269;28;20798;-83
2022/01/02 05:24:30;;;;;;;7.97;5.82;;;;;;;;;;5041131;28;20661;-84
2022/01/02 05:26:57;;;;;;;7.10;6.40;;;;;;;;;;5036119;28;20203;-83
2022/01/02 05:29:26;;;;;;;7.65;6.75;;;;;;;;;;5037851;28;20233;-82
2022/01/02 05:31:53;;;;;;;9.48;7.55;;;;;;;;;;5042016;28;20207;-83
2022/01/02 05:34:21;;;;;;;8.57;7.63;;;;;;;;;;5044915;28;20208;-83
2022/01/02 05:36:49;;;;;;;9.23;7.50;;;;;;;;;;5045744;28;20204;-83
2022/01/02 05:39:17;;;;;;;8.05;7.25;;;;;;;;;;5042110;28;20227;-83
2022/01/02 05:41:45;;;;;;;9.63;7.47;;;;;;;;;;5045665;28;20617;-82
2022/01/02 05:44:13;;;;;;;11.35;8.80;;;;;;;;;;5041646;28;20204;-83
2022/01/02 05:46:41;;;;;;;8.38;7.63;;;;;;;;;;5042104;28;20208;-83
2022/01/02 05:49:09;;;;;;;9.07;8.18;;;;;;;;;;5042077;28;20314;-84
2022/01/02 05:51:36;;;;;;;10.45;9.35;;;;;;;;;;5040946;28;20743;-84
2022/01/02 05:54:04;;;;;;;9.25;7.32;;;;;;;;;;5040860;28;20200;-83
2022/01/02 05:56:31;;;;;;;9.30;8.20;;;;;;;;;;5045387;28;20204;-83
2022/01/02 05:58:59;;;;;;;9.02;7.38;;;;;;;;;;5043126;28;20214;-82
2022/01/02 06:01:26;;;;;;;10.60;9.07;;;;;;;;;;5046388;28;20199;-82
2022/01/02 06:03:55;;;;;;;8.52;7.70;;;;;;;;;;5041510;28;20208;-84
2022/01/02 06:06:24;;;;;;;10.00;8.02;;;;;;;;;;5042897;28;20196;-83
2022/01/02 06:08:51;;;;;;;10.30;7.13;;;;;;;;;;5042249;28;20211;-83
2022/01/02 06:11:18;;;;;;;9.82;8.10;;;;;;;;;;5045142;28;20196;-83
2022/01/02 06:13:46;;;;;;;9.43;8.52;;;;;;;;;;5040346;28;20212;-84
2022/01/02 06:16:13;;;;;;;9.73;8.15;;;;;;;;;;5046483;28;20204;-83
2022/01/02 06:18:41;;;;;;;8.48;7.57;;;;;;;;;;5040795;28;20662;-83
2022/01/02 06:21:10;;;;;;;10.40;7.80;;;;;;;;;;5036266;28;20220;-83
2022/01/02 06:23:37;;;;;;;14.77;9.30;;;;;;;;;;5041931;28;20203;-83
2022/01/02 06:26:04;;;;;;;10.45;8.30;;;;;;;;;;5041323;28;20266;-83
2022/01/02 06:28:32;;;;;;;8.32;7.05;;;;;;;;;;5041279;28;20212;-84
2022/01/02 06:30:59;;;;;;;8.32;7.50;;;;;;;;;;5042041;28;20321;-83
2022/01/02 06:33:26;;;;;;;10.25;7.90;;;;;;;;;;5043401;28;20203;-84
2022/01/02 06:35:53;;;;;;;10.40;8.52;;;;;;;;;;5040846;28;20200;-83
2022/01/02 06:38:23;;;;;;;9.60;7.72;;;4.40;99.90;;;;;;5038078;28;20212;-83
2022/01/02 06:40:50;;;;;;;9.50;8.07;;;4.40;99.90;;;;;;5040514;28;20208;-83
2022/01/02 06:43:18;;;;;;;10.05;7.20;;;;;;;;;;5036791;28;20205;-84
2022/01/02 06:45:45;;;;;;;11.77;8.13;;;;;;;;;;5041499;28;20215;-84
2022/01/02 06:48:12;;;;;;;10.18;7.35;;;;;;;;;;5040256;28;20207;-83
2022/01/02 06:50:40;;;;;;;10.20;8.40;;;;;;;;;;5042913;28;20235;-83
2022/01/02 06:53:07;;;;;;;9.20;7.30;;;;;;;;;;5041126;28;20577;-84
2022/01/02 06:55:36;;;;;;;7.43;6.72;;;;;;;;;;5040984;28;20204;-83
2022/01/02 06:58:05;;;;;;;7.25;6.38;;;;;;;;;;5043163;28;20200;-83
2022/01/02 07:00:33;;;;;;;8.43;6.80;;;;;;;;;;5042001;28;20654;-83
2022/01/02 07:03:00;;;;;;;8.30;6.97;;;;;;;;;;5040220;28;20204;-84
2022/01/02 07:05:27;;;;;;;6.90;6.18;;;;;;;;;;5043442;28;20562;-83
2022/01/02 07:07:54;;;;;;;6.57;5.93;;;;;;;;;;5041746;28;20204;-83
2022/01/02 07:10:22;;;;;;;8.75;7.28;;;;;;;;;;5042254;28;20224;-84
2022/01/02 07:12:50;;;;;;;6.97;6.10;;;;;;;;;;5041764;28;20200;-83
2022/01/02 07:15:18;;;;;;;7.32;5.15;;;;;;;;;;5041698;28;20272;-83
2022/01/02 07:17:47;;;;;;;6.28;5.30;;;;;;;;;;5038700;28;20238;-84
2022/01/02 07:20:14;;;;;;;6.60;5.95;;;;;;;;;;5041347;28;20613;-84
2022/01/02 07:22:42;;;;;;;6.07;5.47;;;;;;;;;;5043906;28;20689;-84
2022/01/02 07:25:10;;;;;;;5.85;4.90;;;4.80;99.90;;;;;;5040431;28;20235;-84
2022/01/02 07:27:38;;;;;;;4.47;4.05;;;;;;;;;;5039127;28;20207;-83
2022/01/02 07:30:07;;;;;;;6.97;5.80;;;;;;;;;;5038475;28;20231;-83
2022/01/02 07:32:35;;;;;;;5.28;4.72;;;;;;;;;;5040008;28;20201;-84
2022/01/02 07:35:04;;;;;;;5.60;5.00;;;;;;;;;;5046385;28;20578;-83
2022/01/02 07:37:31;;;;;;;5.60;4.10;;;;;;;;;;5039831;28;20201;-84
2022/01/02 07:39:58;;;;;;;6.50;3.42;;;;;;;;;;5043421;28;20208;-84
2022/01/02 07:42:25;;;;;;;4.45;4.05;;;;;;;;;;5043620;28;20218;-84
2022/01/02 07:44:53;;;;;;;3.40;3.10;;;;;;;;;;5046755;28;20208;-83
2022/01/02 07:47:21;;;;;;;8.73;4.40;;;5.30;99.90;;;;;;5046984;28;20218;-85
2022/01/02 07:49:48;;;;;;;6.82;3.92;;;;;;;;;;5044553;28;20224;-85
2022/01/02 07:52:16;;;;;;;4.10;3.60;;;;;;;;;;5046994;28;20203;-84
2022/01/02 07:54:43;;;;;;;5.53;4.32;;;;;;;;;;5045772;28;20208;-82
2022/01/02 07:57:12;;;;;;;3.97;3.67;;;;;;;;;;5046340;28;20200;-84
2022/01/02 07:59:40;;;;;;;4.13;3.50;;;;;;;;;;5046970;28;20200;-84
2022/01/02 08:02:07;;;;;;;5.75;5.25;;;;;;;;;;5033901;28;20573;-84
2022/01/02 08:04:36;;;;;;;7.55;6.75;;;;;;;;;;5041222;28;20257;-84
2022/01/02 08:07:03;;;;;;;7.57;4.43;;;;;;;;;;5040470;28;20256;-83
2022/01/02 08:09:30;;;;;;;5.70;4.57;;;;;;;;;;5044094;28;20751;-84
2022/01/02 08:11:57;;;;;;;4.25;3.85;;;;;;;;;;5037006;28;20200;-85
2022/01/02 08:14:25;;;;;;;4.53;4.13;;;;;;;;;;5039272;28;20209;-83
2022/01/02 08:16:53;;;;;;;5.20;4.70;;;;;;;;;;5031105;28;20245;-84
2022/01/02 08:19:20;;;;;;;4.07;3.67;;;;;;;;;;5042818;28;20201;-84
2022/01/02 08:21:49;;;;;;;7.57;4.68;;;;;;;;;;5040647;28;20200;-84
2022/01/02 08:24:16;;;;;;;4.45;3.90;;;;;;;;;;5041567;28;20624;-83
2022/01/02 08:26:45;;;;;;;7.80;4.53;;;;;;;;;;5039983;28;20270;-84
2022/01/02 08:29:12;;;;;;;5.07;4.68;;;;;;;;;;5043490;28;20334;-84
2022/01/02 08:31:40;;;;;;;6.15;5.10;;;;;;;;;;5045971;28;20220;-84
2022/01/02 08:34:08;;;;;;;8.75;4.50;;;;;;;;;;5046160;28;20200;-83
2022/01/02 08:36:35;;;;;;;6.30;4.50;;;;;;;;;;5038882;28;20208;-84
2022/01/02 08:39:04;;;;;;;4.20;3.90;;;;;;;;;;5042097;28;20200;-84
2022/01/02 08:41:31;;;;;;;5.80;4.82;;;;;;;;;;5044097;28;20543;-84
2022/01/02 08:43:59;;;;;;;5.80;4.43;;;6.20;99.90;;;;;;5044542;28;20207;-84
2022/01/02 08:46:26;;;;;;;6.70;4.57;;;;;;;;;;5042722;28;20206;-85
2022/01/02 08:48:53;;;;;;;5.72;4.90;;;;;;;;;;5046137;28;20200;-85
2022/01/02 08:51:20;;;;;;;6.20;5.60;;;;;;;;;;5043009;28;20784;-85
2022/01/02 08:53:48;;;;;;;6.57;4.78;;;;;;;;;;5046082;28;20203;-86
2022/01/02 08:56:16;;;;;;;5.15;4.65;;;;;;;;;;5042168;28;20204;-86
2022/01/02 08:58:44;;;;;;;6.27;4.77;;;;;;;;;;5045869;28;20204;-85
2022/01/02 09:01:11;;;;;;;9.60;5.45;;;;;;;;;;5043700;28;20989;-84
2022/01/02 09:03:38;;;;;;;4.93;4.43;;;;;;;;;;5045673;28;20911;-84
2022/01/02 09:06:05;;;;;;;5.30;4.80;;;;;;;;;;5044915;28;20200;-85
2022/01/02 09:08:33;;;;;;;5.32;4.32;;;;;;;;;;5040935;28;20204;-84
2022/01/02 09:11:00;;;;;;;5.25;4.13;;;;;;;;;;5044956;28;20220;-85
2022/01/02 09:13:29;;;;;;;4.70;4.17;;;;;;;;;;5039363;28;20635;-85
2022/01/02 09:15:56;;;;;;;4.90;4.50;;;;;;;;;;5043172;28;20642;-85
2022/01/02 09:18:24;;;;;;;4.23;3.40;;;;;;;;;;5033991;28;20670;-85
2022/01/02 09:20:51;;;;;;;4.30;3.23;;;;;;;;;;5039850;28;21038;-85
2022/01/02 09:23:18;;;;;;;6.10;4.53;;;;;;;;;;5038301;28;20627;-85
2022/01/02 09:25:46;;;;;;;4.20;3.80;;;;;;;;;;5037954;28;20651;-86
2022/01/02 09:28:13;;;;;;;3.67;3.30;;;7.90;99.90;;;;;;5042156;28;20646;-86
2022/01/02 09:30:42;;;;;;;4.10;3.80;;;;;;;;;;5036576;28;20670;-85
2022/01/02 09:33:10;;;;;;;5.77;3.40;;;;;;;;;;5037485;28;20647;-86
2022/01/02 09:35:41;;;;;;;4.53;3.47;;;;;;;;;;5040331;28;20662;-86
2022/01/02 09:38:08;;;;;;;4.37;3.80;;;;;;;;;;5043892;28;20654;-84
2022/01/02 09:40:40;;;;;;;4.33;3.70;;;;;;;;;;5046343;28;20643;-86
2022/01/02 09:43:07;;;;;;;4.23;3.83;;;;;;;;;;5041952;28;20699;-84
2022/01/02 09:45:38;;;;;;;4.90;3.33;;;;;;;;;;5046173;28;20641;-85
2022/01/02 09:48:07;;;;;;;3.40;3.10;;;;;;;;;;5040922;28;20657;-86
2022/01/02 09:50:39;;;;;;;3.93;3.17;;;;;;;;;;5042713;28;20670;-85
2022/01/02 09:53:07;;;;;;;3.43;3.20;;;8.30;99.90;;;;;;5041971;28;20644;-85
2022/01/02 09:55:34;;;;;;;3.80;3.27;;;;;;;;;;5041823;28;20615;-85
2022/01/02 09:58:04;;;;;;;3.60;3.30;;;;;;;;;;5043671;28;20637;-85
2022/01/02 10:00:31;;;;;;;4.50;4.03;;;;;;;;;;5043904;28;20660;-86
2022/01/02 10:03:00;;;;;;;4.40;2.83;;;8.50;99.90;;;;;;5040432;28;20633;-85
2022/01/02 10:05:31;;;;;;;4.53;4.10;;;8.70;99.90;;;;;;5045210;28;20618;-85
2022/01/02 10:07:59;;;;;;;3.40;3.10;;;;;;;;;;5045965;28;20657;-85
2022/01/02 10:10:43;;;;;;;4.40;3.07;;;8.80;99.90;;;;;;5042902;28;20659;-84
2022/01/02 10:13:10;;;;;;;3.90;3.40;;;;;;;;;;5039816;28;20634;-86
2022/01/02 10:15:38;;;;;;;4.00;3.60;;;;;;;;;;5042041;28;20628;-86
2022/01/02 10:18:07;;;;;;;3.70;2.87;;;9.00;99.90;;;;;;5044216;28;20737;-85
2022/01/02 10:20:37;;;;;;;3.43;2.87;;;;;;;;;;5043948;28;20976;-85
2022/01/02 10:23:08;;;;;;;3.90;3.47;;;9.10;99.90;;;;;;5045105;28;20622;-85
2022/01/02 10:25:39;;;;;;;5.37;3.57;;;;;;;;;;5046181;28;20718;-84
2022/01/02 10:28:18;;;;;;;4.63;3.20;;;;;;;;;;5044542;28;20737;-85
2022/01/02 10:30:46;;;;;;;4.23;3.63;;;;;;;;;;5046721;28;20758;-85
2022/01/02 10:33:14;;;;;;;6.20;3.73;;;;;;;;;;5042523;28;21215;-86
2022/01/02 10:35:42;;;;;;;3.90;3.50;;;;;;;;;;5045289;28;20744;-85
2022/01/02 10:38:16;;;;;;;4.33;3.93;;;9.30;99.90;;;;;;5044825;28;20633;-85
2022/01/02 10:40:44;;;;;;;6.27;5.17;;;9.10;99.90;;;;;;5046410;28;20641;-84
2022/01/02 10:43:12;;;;;;;4.83;4.43;;;;;;;;;;5041846;28;20650;-85
2022/01/02 10:45:41;;;;;;;8.33;5.17;;;;;;;;;;5043387;28;20689;-85
2022/01/02 10:48:10;;;;;;;6.40;5.10;;;;;;;;;;5044196;28;20654;-86
2022/01/02 10:50:38;;;;;;;6.03;5.43;;;9.20;99.90;;;;;;5043628;28;20641;-86
2022/01/02 10:53:15;;;;;;;5.90;5.30;;;9.10;99.90;;;;;;5043151;28;20955;-84
2022/01/02 10:55:46;;;;;;;6.83;5.90;;;9.10;99.90;;;;;;5038759;28;20689;-85
2022/01/02 10:58:14;;;;;;;6.40;5.80;;;;;;;;;;5044373;28;20714;-85
2022/01/02 11:00:41;;;;;;;7.87;6.60;;;;;;;;;;5045861;28;20685;-85
2022/01/02 11:03:09;;;;;;;7.37;6.67;;;;;;;;;;5047302;28;20622;-85
2022/01/02 11:05:39;;;;;;;6.77;6.10;;;9.30;99.90;;;;;;5046949;28;20660;-84
2022/01/02 11:08:07;;;;;;;6.10;5.53;;;;;;;;;;5043270;28;20642;-85
2022/01/02 11:10:36;;;;;;;6.50;5.90;;;;;;;;;;5043733;28;20623;-84
2022/01/02 11:13:05;;;;;;;7.10;6.40;;;9.20;99.90;;;;;;5031717;28;20622;-84
2022/01/02 11:15:32;;;;;;;7.17;5.90;;;;;;;;;;5043037;28;20680;-84
2022/01/02 11:18:00;;;;;;;4.67;3.90;;;;;;;;;;5042309;28;20635;-84
2022/01/02 11:20:29;;;;;;;4.83;4.33;;;9.20;99.90;;;;;;5044447;28;20635;-84
2022/01/02 11:23:01;;;;;;;4.73;3.70;;;;;;;;;;5040840;28;20646;-84
2022/01/02 11:25:31;;;;;;;4.77;3.93;;;;;;;;;;5046240;28;21198;-84
2022/01/02 11:28:02;;;;;;;3.33;2.70;;;;;;;;;;5037950;28;20620;-84
2022/01/02 11:30:40;;;;;;;6.27;3.13;;;9.60;99.90;;;;;;5038887;28;20630;-84
2022/01/02 11:33:10;;;;;;;1.97;1.70;;;9.60;99.90;;;;;;5043131;28;20671;-85
2022/01/02 11:35:38;;;;;;;2.00;1.80;;;9.80;99.70;;;;;;5047698;28;20634;-85
2022/01/02 11:38:06;;;;;;;2.70;2.43;;;;;;;;;;5043192;28;20634;-84
2022/01/02 11:40:49;;;;;;;2.70;2.33;;;10.10;98.30;;;;;;5040710;28;20615;-84
2022/01/02 11:43:34;;;;;;;2.20;1.87;;;;;;;;;;5041092;28;20680;-85
2022/01/02 11:46:17;;;;;;;1.57;1.47;;;;;;;;;;5036773;28;20638;-85
2022/01/02 11:48:44;;;;;;;2.53;1.80;;;;;;;;;;5045005;28;21232;-85
2022/01/02 11:51:11;;;;;;;1.63;1.53;;;;;;;;;;5046438;28;21230;-84
2022/01/02 11:53:55;;;;;;;2.27;1.53;;;10.70;94.30;;;;;;5046911;28;20986;-85
2022/01/02 11:56:33;;;;;;;2.10;1.33;;;;;;;;;;5045236;28;20626;-86
2022/01/02 11:59:00;;;;;;;1.70;1.60;;;;;;;;;;5043955;28;21609;-86
2022/01/02 12:01:49;;;;;;;2.97;1.37;;;;;;;;;;5044320;28;21079;-85
2022/01/02 12:04:16;;;;;;;1.50;1.33;;;;;;;;;;5046582;28;20628;-86
2022/01/02 12:06:45;;;;;;;2.07;1.43;;;;;;;;;;5041854;28;20629;-86
2022/01/02 12:09:52;;;;;;;1.57;1.47;;;11.70;89.70;;;;;;5045550;28;20635;-86
2022/01/02 12:12:20;;;;;;;3.53;1.63;;;;;;;;;;5043802;28;20666;-86
2022/01/02 12:14:54;;;;;;;1.33;1.17;;;;;;;;;;5046734;28;20725;-86
2022/01/02 12:17:59;;;;;;;2.10;1.57;;;;;;;;;;5037871;28;21409;-86
2022/01/02 12:20:30;;;;;;;1.43;1.33;;;;;;;;;;5048261;28;21189;-85
2022/01/02 12:23:05;;;;;;;1.53;1.43;;;;;;;;;;5044705;28;20644;-86
2022/01/02 12:25:32;;;;;;;2.70;1.77;;;;;;;;;;5035063;28;21135;-86
2022/01/02 12:28:11;;;;;;;1.10;1.10;;;;;;;;;;5045856;28;20661;-86
2022/01/02 12:30:40;;;;;;;1.30;1.20;;;11.90;92.00;;;;;;5045772;28;20632;-86
2022/01/02 12:33:09;;;;;;;1.30;1.20;;;;;;;;;;5044917;28;20689;-86
2022/01/02 12:36:18;;;;;;;1.60;1.50;;;12.20;92.50;;;;;;5044954;28;20663;-86
2022/01/02 12:39:14;;;;;;;1.90;1.43;;;12.20;91.60;;;;;;5047208;28;20644;-86
2022/01/02 12:41:44;;;;;;;3.07;2.00;;;;;;;;;;5044531;28;20642;-86
2022/01/02 12:44:13;;;;;;;1.40;1.30;;;;;;;;;;5046930;28;21189;-86
2022/01/02 12:47:05;;;;;;;1.20;1.10;;;;;;;;;;5048205;28;20719;-87
2022/01/02 12:49:35;;;;;;;1.70;1.27;;;12.40;87.90;;;;;;5045638;28;20640;-86
2022/01/02 12:52:05;;;;;;;3.27;1.70;;;12.40;85.50;;;;;;5047149;28;20656;-86
2022/01/02 12:54:33;;;;;;;2.77;1.50;;;;;;;;;;5046954;28;20625;-85
2022/01/02 12:57:01;;;;;;;1.57;1.47;;;;;;;;;;5046321;28;20618;-86
2022/01/02 12:59:36;;;;;;;2.50;1.67;;;;;;;;;;5046445;28;20637;-86
2022/01/02 13:02:04;;;;;;;1.63;1.40;;;;;;;;;;5047234;28;20645;-85
2022/01/02 13:04:35;;;;;;;1.60;1.50;;;12.70;86.10;;;;;;5045942;28;20744;-86
2022/01/02 13:07:04;;;;;;;2.30;1.47;;;12.30;85.90;;;;;;5046956;28;21029;-86
2022/01/02 13:09:33;;;;;;;2.00;1.80;;;12.60;85.10;;;;;;5043397;28;20641;-85
2022/01/02 13:12:02;;;;;;;2.30;1.70;;;12.60;84.50;;;;;;5043131;28;20684;-85
2022/01/02 13:14:48;;;;;;;1.30;1.20;;;;;;;;;;5051650;28;20676;-86
2022/01/02 13:17:20;;;;;;;1.97;1.40;;;12.70;82.60;;;;;;5047859;28;20653;-85
2022/01/02 13:19:52;;;;;;;2.03;1.63;;;12.70;83.30;;;;;;5050148;28;20634;-86
2022/01/02 13:22:21;;;;;;;2.00;1.43;;;;;;;;;;5048477;28;21034;-85
2022/01/02 13:24:48;;;;;;;2.40;1.57;;;;;;;;;;5048023;28;20637;-85
2022/01/02 13:27:15;;;;;;;2.10;1.73;;;;;;;;;;5050218;28;20635;-85
2022/01/02 13:29:43;;;;;;;1.60;1.50;;;;;;;;;;5044196;28;20633;-84
2022/01/02 13:32:15;;;;;;;3.93;2.10;;;;;;;;;;5045440;28;20660;-85
2022/01/02 13:34:43;;;;;;;2.00;1.63;;;;;;;;;;5042766;28;20643;-85
2022/01/02 13:37:12;;;;;;;1.70;1.60;;;;;;;;;;5043634;28;20641;-85
2022/01/02 13:39:44;;;;;;;1.93;1.60;;;;;;;;;;5045708;28;20659;-84
2022/01/02 13:42:12;;;;;;;2.20;1.30;;;12.30;85.20;;;;;;5043766;28;20626;-85
2022/01/02 13:44:40;;;;;;;5.20;2.40;;;;;;;;;;5043657;28;20737;-85
2022/01/02 13:47:08;;;;;;;1.73;1.60;;;;;;;;;;5044144;28;20728;-85
2022/01/02 13:49:47;;;;;;;1.70;1.60;;;12.50;83.70;;;;;;5047488;28;20644;-85
2022/01/02 13:52:16;;;;;;;3.10;1.53;;;;;;;;;;5040391;28;20669;-84
2022/01/02 13:54:43;;;;;;;1.77;1.67;;;;;;;;;;5049922;28;20645;-84
2022/01/02 13:57:11;;;;;;;1.50;1.40;;;;;;;;;;5046198;28;20630;-85
2022/01/02 13:59:38;;;;;;;2.07;1.87;;;;;;;;;;5039250;28;20674;-85
2022/01/02 14:02:06;;;;;;;2.20;2.00;;;;;;;;;;5042173;28;20729;-84
2022/01/02 14:04:58;;;;;;;2.67;1.83;;;12.40;83.00;;;;;;5041894;28;20745;-84
2022/01/02 14:07:31;;;;;;;2.10;1.90;;;;;;;;;;5051864;28;20727;-84
2022/01/02 14:10:00;;;;;;;2.63;1.67;;;12.30;85.10;;;;;;5044474;28;20664;-84
2022/01/02 14:12:28;;;;;;;2.67;2.17;;;;;;;;;;5046759;28;20681;-84
2022/01/02 14:15:07;;;;;;;2.77;1.50;;;12.30;83.10;;;;;;5050048;28;20650;-84
2022/01/02 14:17:34;;;;;;;2.03;1.80;;;12.20;85.10;;;;;;5047659;28;20752;-84
2022/01/02 14:20:04;;;;;;;2.50;1.97;;;12.20;85.00;;;;;;5049467;28;21052;-84
2022/01/02 14:22:36;;;;;;;3.67;2.23;;;12.20;84.70;;;;;;5048488;28;20706;-84
2022/01/02 14:25:05;;;;;;;1.80;1.60;;;;;;;;;;5051490;28;20643;-85
2022/01/02 14:27:33;;;;;;;4.97;1.77;;;;;;;;;;5047307;28;20672;-85
2022/01/02 14:30:01;;;;;;;2.87;1.83;;;;;;;;;;5050314;28;20735;-84
2022/01/02 14:32:34;;;;;;;2.33;1.77;;;;;;;;;;5049437;28;20661;-85
2022/01/02 14:35:03;;;;;;;4.23;1.63;;;;;;;;;;5049260;28;20641;-85